Dunkirk, Ohio
Current Conditions -  °F | °C
As of 1:48 AM on Monday 24 Nov 2014 (Local Time) from KFDY Reporting Station
Light Rain Light Rain  
Wind Chill: 57°   Ceiling: 1400
Heat Index: 57°   Visibility: 7mi
Dew Point: 54°   Wind: 22mph
Humidity: 88%   Direction: 170°S
Pressure: 29.15"   Gusts: 31mph
Location:  40.79°N, 83.64°W
Report Text: KFDY 240648Z AUTO 17019G27KT 7SM -RA BKN014 OVC019 14/12 A2915 RMK AO2 PK WND 16033/0556 RAB08 P0001
Loading
Personal Weather Stations






























Interactive Weather Map New forecast layout! Learn more

10-Day Weather Forecast

Advertisements
Track Severe Weather on mobile